createdAt,value
2018-04-10T00:00:39.612Z,18.90
2018-04-10T00:01:39.616Z,19.40
2018-04-10T00:02:39.626Z,18.70
2018-04-10T00:03:39.610Z,19.00
2018-04-10T00:05:00.628Z,18.20
2018-04-10T00:05:39.613Z,18.50
2018-04-10T00:06:39.615Z,19.10
2018-04-10T00:07:39.611Z,18.90
2018-04-10T00:08:39.620Z,18.80
2018-04-10T00:09:39.612Z,19.00
2018-04-10T00:11:00.637Z,18.60
2018-04-10T00:11:39.608Z,18.30
2018-04-10T00:12:39.616Z,18.10
2018-04-10T00:13:39.607Z,18.90
2018-04-10T00:14:39.607Z,19.90
2018-04-10T00:15:39.606Z,21.40
2018-04-10T00:17:00.611Z,19.40
2018-04-10T00:17:39.604Z,19.00
2018-04-10T00:18:39.603Z,19.70
2018-04-10T00:19:39.600Z,19.60
2018-04-10T00:20:39.607Z,19.20
2018-04-10T00:21:39.603Z,19.70
2018-04-10T00:23:00.612Z,19.40
2018-04-10T00:23:39.599Z,20.10
2018-04-10T00:24:39.593Z,19.30
2018-04-10T00:25:39.592Z,19.70
2018-04-10T00:26:39.597Z,19.70
2018-04-10T00:27:39.593Z,20.70
2018-04-10T00:29:00.602Z,20.10
2018-04-10T00:29:39.590Z,19.70
2018-04-10T00:30:39.589Z,20.20
2018-04-10T00:31:39.588Z,20.00
2018-04-10T00:32:39.589Z,20.60
2018-04-10T00:33:39.594Z,20.30
2018-04-10T00:35:00.604Z,20.40
2018-04-10T00:35:39.598Z,21.40
2018-04-10T00:36:39.579Z,23.40
2018-04-10T00:37:39.584Z,21.10
2018-04-10T00:38:39.594Z,22.10
2018-04-10T00:39:39.599Z,22.80
2018-04-10T00:41:00.595Z,21.50
2018-04-10T00:41:39.577Z,21.70
2018-04-10T00:42:39.587Z,22.10
2018-04-10T00:43:39.571Z,22.70
2018-04-10T00:44:39.570Z,22.10
2018-04-10T00:45:39.569Z,22.30
2018-04-10T00:47:00.586Z,22.50
2018-04-10T00:47:39.574Z,22.00
2018-04-10T00:48:39.571Z,22.30
2018-04-10T00:49:39.567Z,21.80
2018-04-10T00:50:39.563Z,23.50
2018-04-10T00:51:39.570Z,22.80
2018-04-10T00:53:00.567Z,22.50
2018-04-10T00:53:39.563Z,24.50
2018-04-10T00:54:39.571Z,23.40
2018-04-10T00:55:39.568Z,23.00
2018-04-10T00:56:39.578Z,23.30
2018-04-10T00:57:39.560Z,23.90
2018-04-10T00:59:00.563Z,23.70
2018-04-10T00:59:39.560Z,23.80
2018-04-10T01:00:39.565Z,23.30
2018-04-10T01:01:39.555Z,24.10
2018-04-10T01:02:39.555Z,24.20
2018-04-10T01:03:39.540Z,24.20
2018-04-10T01:05:00.566Z,23.50
2018-04-10T01:05:39.543Z,23.50
2018-04-10T01:06:39.545Z,24.50
2018-04-10T01:07:39.551Z,23.90
2018-04-10T01:08:39.550Z,24.80
2018-04-10T01:09:39.541Z,24.50
2018-04-10T01:11:00.557Z,24.00
2018-04-10T01:11:39.539Z,23.90
2018-04-10T01:12:39.543Z,24.70
2018-04-10T01:13:39.534Z,23.70
2018-04-10T01:14:39.531Z,23.90
2018-04-10T01:15:39.534Z,24.10
2018-04-10T01:17:00.545Z,24.20
2018-04-10T01:17:39.532Z,23.80
2018-04-10T01:18:39.529Z,24.10
2018-04-10T01:19:39.526Z,24.20
2018-04-10T01:20:39.531Z,23.50
2018-04-10T01:21:39.536Z,24.20
2018-04-10T01:23:00.538Z,24.10
2018-04-10T01:23:39.522Z,22.60
2018-04-10T01:24:39.523Z,24.20
2018-04-10T01:25:39.522Z,24.70
2018-04-10T01:26:39.518Z,24.80
2018-04-10T01:27:39.518Z,22.90
2018-04-10T01:29:00.526Z,23.90
2018-04-10T01:29:39.519Z,24.60
2018-04-10T01:30:39.514Z,23.60
2018-04-10T01:31:39.515Z,23.10
2018-04-10T01:32:39.508Z,23.50
2018-04-10T01:33:39.506Z,24.40
2018-04-10T01:35:00.516Z,23.60
2018-04-10T01:35:39.509Z,24.80
2018-04-10T01:36:39.504Z,24.20
2018-04-10T01:37:39.498Z,24.60
2018-04-10T01:38:39.493Z,23.40
2018-04-10T01:39:39.497Z,25.00
2018-04-10T01:41:00.519Z,26.10
2018-04-10T01:41:39.493Z,25.10
2018-04-10T01:42:39.491Z,25.00
2018-04-10T01:43:39.493Z,26.10
2018-04-10T01:44:39.493Z,26.70
2018-04-10T01:45:39.493Z,27.40
2018-04-10T01:47:00.496Z,26.20
2018-04-10T01:47:39.479Z,26.80
2018-04-10T01:48:39.481Z,27.50
2018-04-10T01:49:39.492Z,26.60
2018-04-10T01:50:39.491Z,27.60
2018-04-10T01:51:39.478Z,27.00
2018-04-10T01:53:00.496Z,26.70
2018-04-10T01:53:39.474Z,28.00
2018-04-10T01:54:39.481Z,27.00
2018-04-10T01:55:39.472Z,28.10
2018-04-10T01:56:39.472Z,28.10
2018-04-10T01:57:39.472Z,28.20
2018-04-10T01:59:00.478Z,27.70
2018-04-10T01:59:39.461Z,27.50
2018-04-10T02:00:39.455Z,28.30
2018-04-10T02:01:39.462Z,28.00
2018-04-10T02:02:39.459Z,27.70
2018-04-10T02:03:39.458Z,27.20
2018-04-10T02:05:00.470Z,27.60
2018-04-10T02:05:39.459Z,27.60
2018-04-10T02:06:39.453Z,27.70
2018-04-10T02:07:39.445Z,28.60
2018-04-10T02:08:39.449Z,27.30
2018-04-10T02:09:39.442Z,26.70
2018-04-10T02:11:00.449Z,26.30
2018-04-10T02:11:39.441Z,27.20
2018-04-10T02:12:39.440Z,27.90
2018-04-10T02:13:39.439Z,27.70
2018-04-10T02:14:39.440Z,27.90
2018-04-10T02:15:39.438Z,26.90
2018-04-10T02:17:00.435Z,26.80
2018-04-10T02:17:39.438Z,25.80
2018-04-10T02:18:39.430Z,28.20
2018-04-10T02:19:39.424Z,27.40
2018-04-10T02:20:39.424Z,27.40
2018-04-10T02:21:39.424Z,28.20
2018-04-10T02:23:00.429Z,26.90
2018-04-10T02:23:39.419Z,26.90
2018-04-10T02:24:39.451Z,25.40
2018-04-10T02:25:39.410Z,28.00
2018-04-10T02:26:39.416Z,27.20
2018-04-10T02:27:39.425Z,26.70
2018-04-10T02:29:00.418Z,29.40
2018-04-10T02:29:39.409Z,28.30
2018-04-10T02:30:39.408Z,28.60
2018-04-10T02:31:39.406Z,29.50
2018-04-10T02:32:39.411Z,28.50
2018-04-10T02:33:39.408Z,28.80
2018-04-10T02:35:00.406Z,29.20
2018-04-10T02:35:39.404Z,28.40
2018-04-10T02:36:39.395Z,29.50
2018-04-10T02:37:39.400Z,30.40
2018-04-10T02:38:39.396Z,29.00
2018-04-10T02:39:39.377Z,30.30
2018-04-10T02:41:00.395Z,29.40
2018-04-10T02:41:39.394Z,30.30
2018-04-10T02:42:39.383Z,29.90
2018-04-10T02:43:39.379Z,30.90
2018-04-10T02:44:39.380Z,29.60
2018-04-10T02:45:39.376Z,31.10
2018-04-10T02:47:00.388Z,31.30
2018-04-10T02:47:39.371Z,30.90
2018-04-10T02:48:39.365Z,31.20
2018-04-10T02:49:39.375Z,31.50
2018-04-10T02:50:39.368Z,31.50
2018-04-10T02:51:39.367Z,30.40
2018-04-10T02:53:00.367Z,32.30
2018-04-10T02:53:39.354Z,30.80
2018-04-10T02:54:39.355Z,32.50
2018-04-10T02:55:39.356Z,31.90
2018-04-10T02:56:39.348Z,31.60
2018-04-10T02:57:39.350Z,31.70
2018-04-10T02:59:00.357Z,31.80
2018-04-10T02:59:39.341Z,32.10
2018-04-10T03:00:39.347Z,32.30
2018-04-10T03:01:39.351Z,32.40
2018-04-10T03:02:39.335Z,32.40
2018-04-10T03:03:39.340Z,32.00
2018-04-10T03:05:00.342Z,32.30
2018-04-10T03:05:39.333Z,32.80
2018-04-10T03:06:39.324Z,32.50
2018-04-10T03:07:39.331Z,32.10
2018-04-10T03:08:39.327Z,32.30
2018-04-10T03:09:39.334Z,31.80
2018-04-10T03:11:00.341Z,32.10
2018-04-10T03:11:39.320Z,31.90
2018-04-10T03:12:39.321Z,32.00
2018-04-10T03:13:39.311Z,32.20
2018-04-10T03:14:39.313Z,32.10
2018-04-10T03:15:39.311Z,33.10
2018-04-10T03:17:00.314Z,32.00
2018-04-10T03:17:39.303Z,32.10
2018-04-10T03:18:39.302Z,33.00
2018-04-10T03:19:39.298Z,32.00
2018-04-10T03:20:39.298Z,31.90
2018-04-10T03:21:39.307Z,32.60
2018-04-10T03:23:00.311Z,32.20
2018-04-10T03:23:39.292Z,33.20
2018-04-10T03:24:39.302Z,32.30
2018-04-10T03:25:39.289Z,32.30
2018-04-10T03:26:39.286Z,32.40
2018-04-10T03:27:39.294Z,32.40
2018-04-10T03:29:00.301Z,32.30
2018-04-10T03:29:39.282Z,33.20
2018-04-10T03:30:39.277Z,33.50
2018-04-10T03:31:39.277Z,32.90
2018-04-10T03:32:39.271Z,32.90
2018-04-10T03:33:39.271Z,32.90
2018-04-10T03:35:00.275Z,34.20
2018-04-10T03:35:39.270Z,33.60
2018-04-10T03:36:39.263Z,33.50
2018-04-10T03:37:39.264Z,32.60
2018-04-10T03:38:39.263Z,32.70
2018-04-10T03:39:39.261Z,33.90
2018-04-10T03:41:00.267Z,33.10
2018-04-10T03:41:39.252Z,33.20
2018-04-10T03:42:39.247Z,33.80
2018-04-10T03:43:39.248Z,32.40
2018-04-10T03:44:39.243Z,33.30
2018-04-10T03:45:39.243Z,32.60
2018-04-10T03:47:00.248Z,33.50
2018-04-10T03:47:39.233Z,33.50
2018-04-10T03:48:39.232Z,33.40
2018-04-10T03:49:39.235Z,34.00
2018-04-10T03:50:39.228Z,32.90
2018-04-10T03:51:39.231Z,33.60
2018-04-10T03:53:00.232Z,34.60
2018-04-10T03:53:39.217Z,34.50
2018-04-10T03:54:39.237Z,34.00
2018-04-10T03:55:39.225Z,33.80
2018-04-10T03:56:39.216Z,34.70
2018-04-10T03:57:39.209Z,34.70
2018-04-10T03:59:00.221Z,34.80
2018-04-10T03:59:39.205Z,35.20
2018-04-10T04:00:39.203Z,35.20
2018-04-10T04:01:39.206Z,33.70
2018-04-10T04:02:39.210Z,34.60
2018-04-10T04:03:39.199Z,34.10
2018-04-10T04:05:00.202Z,34.20
2018-04-10T04:05:39.189Z,34.00
2018-04-10T04:06:39.188Z,34.40
2018-04-10T04:07:39.185Z,34.40
2018-04-10T04:08:39.188Z,34.20
2018-04-10T04:09:39.186Z,34.40
2018-04-10T04:11:00.196Z,35.00
2018-04-10T04:11:39.180Z,34.70
2018-04-10T04:12:39.185Z,35.00
2018-04-10T04:13:39.176Z,35.80
2018-04-10T04:14:39.182Z,35.50
2018-04-10T04:15:39.171Z,34.80
2018-04-10T04:17:00.170Z,35.30
2018-04-10T04:17:39.174Z,34.90
2018-04-10T04:18:39.165Z,35.30
2018-04-10T04:19:39.165Z,34.40
2018-04-10T04:20:39.169Z,34.90
2018-04-10T04:21:39.151Z,34.20
2018-04-10T04:23:00.174Z,34.20
2018-04-10T04:23:39.156Z,35.30
2018-04-10T04:24:39.147Z,35.00
2018-04-10T04:25:39.140Z,34.60
2018-04-10T04:26:39.143Z,34.60
2018-04-10T04:27:39.151Z,34.80
2018-04-10T04:29:00.149Z,35.30
2018-04-10T04:29:39.137Z,35.80
2018-04-10T04:30:39.138Z,35.30
2018-04-10T04:31:39.133Z,36.10
2018-04-10T04:32:39.131Z,35.50
2018-04-10T04:33:39.123Z,35.30
2018-04-10T04:35:00.136Z,35.70
2018-04-10T04:35:39.114Z,34.70
2018-04-10T04:36:39.122Z,34.70
2018-04-10T04:37:39.120Z,35.00
2018-04-10T04:38:39.118Z,34.90
2018-04-10T04:39:39.111Z,35.70
2018-04-10T04:41:00.121Z,34.70
2018-04-10T04:41:39.107Z,35.30
2018-04-10T04:42:39.105Z,34.70
2018-04-10T04:43:39.103Z,35.50
2018-04-10T04:44:39.101Z,34.90
2018-04-10T04:45:39.100Z,33.80
2018-04-10T04:47:00.098Z,34.80
2018-04-10T04:47:39.095Z,33.90
2018-04-10T04:48:39.097Z,34.70
2018-04-10T04:49:39.086Z,34.70
2018-04-10T04:50:39.092Z,34.20
2018-04-10T04:51:39.080Z,34.00
2018-04-10T04:53:00.079Z,34.20
2018-04-10T04:53:39.078Z,33.50
2018-04-10T04:54:39.166Z,33.70
2018-04-10T04:55:39.063Z,34.10
2018-04-10T04:56:39.069Z,33.50
2018-04-10T04:57:39.058Z,32.90
2018-04-10T04:59:00.112Z,33.10
2018-04-10T04:59:39.098Z,33.60
2018-04-10T05:00:39.064Z,33.40
2018-04-10T05:01:39.054Z,33.00
2018-04-10T05:02:39.068Z,32.70
2018-04-10T05:03:39.048Z,33.30
2018-04-10T05:05:00.053Z,33.20
2018-04-10T05:05:39.049Z,33.60
2018-04-10T05:06:39.474Z,33.40
2018-04-10T05:07:39.038Z,32.90
2018-04-10T05:08:39.031Z,33.00
2018-04-10T05:09:39.035Z,31.70
2018-04-10T05:11:00.040Z,32.60
2018-04-10T05:11:39.043Z,32.30
2018-04-10T05:12:39.024Z,31.20
2018-04-10T05:13:39.047Z,31.70
2018-04-10T05:14:39.027Z,32.20
2018-04-10T05:15:39.020Z,31.90
2018-04-10T05:17:00.025Z,32.00
2018-04-10T05:17:39.021Z,32.10
2018-04-10T05:18:39.011Z,32.40
2018-04-10T05:19:39.018Z,31.90
2018-04-10T05:20:39.024Z,31.40
2018-04-10T05:21:39.017Z,33.00
2018-04-10T05:23:00.037Z,32.40
2018-04-10T05:23:39.003Z,32.70
2018-04-10T05:24:39.004Z,33.60
2018-04-10T05:25:39.001Z,32.50
2018-04-10T05:26:39.000Z,31.80
2018-04-10T05:27:38.993Z,32.60
2018-04-10T05:29:00.009Z,32.90
2018-04-10T05:29:38.995Z,33.10
2018-04-10T05:30:38.988Z,32.50
2018-04-10T05:31:38.997Z,32.40
2018-04-10T05:32:38.984Z,31.70
2018-04-10T05:33:38.989Z,31.20
2018-04-10T05:34:59.988Z,30.90
2018-04-10T05:35:39.006Z,30.80
2018-04-10T05:36:38.977Z,31.00
2018-04-10T05:37:38.974Z,31.70
2018-04-10T05:38:38.978Z,31.60
2018-04-10T05:39:38.982Z,29.90
2018-04-10T05:40:59.992Z,30.70
2018-04-10T05:41:38.970Z,30.40
2018-04-10T05:42:38.975Z,29.90
2018-04-10T05:43:38.973Z,29.70
2018-04-10T05:44:38.979Z,30.00
2018-04-10T05:45:38.979Z,29.30
2018-04-10T05:46:59.985Z,29.80
2018-04-10T05:47:38.968Z,30.30
2018-04-10T05:48:38.978Z,29.80
2018-04-10T05:49:39.012Z,29.50
2018-04-10T05:50:38.971Z,29.90
2018-04-10T05:51:38.965Z,29.70
2018-04-10T05:52:59.967Z,29.60
2018-04-10T05:53:38.969Z,28.80
2018-04-10T05:54:38.977Z,30.30
2018-04-10T05:55:38.965Z,28.40
2018-04-10T05:56:38.974Z,29.40
2018-04-10T05:57:38.965Z,29.40
2018-04-10T05:58:59.971Z,28.80
2018-04-10T05:59:38.964Z,28.40
2018-04-10T06:00:38.968Z,28.40
2018-04-10T06:01:38.967Z,28.40
2018-04-10T06:02:38.970Z,27.90
2018-04-10T06:03:38.972Z,29.10
2018-04-10T06:04:59.975Z,28.40
2018-04-10T06:05:38.964Z,29.20
2018-04-10T06:06:38.995Z,28.50
2018-04-10T06:07:38.962Z,28.70
2018-04-10T06:08:38.969Z,28.90
2018-04-10T06:09:38.956Z,27.80
2018-04-10T06:10:59.980Z,28.30
2018-04-10T06:11:38.965Z,27.80
2018-04-10T06:12:38.963Z,28.60
2018-04-10T06:13:38.961Z,28.90
2018-04-10T06:14:38.960Z,28.90
2018-04-10T06:15:38.962Z,27.60
2018-04-10T06:16:59.972Z,26.90
2018-04-10T06:17:38.965Z,26.80
2018-04-10T06:18:38.975Z,28.20
2018-04-10T06:19:38.967Z,26.80
2018-04-10T06:20:38.957Z,27.80
2018-04-10T06:21:38.978Z,27.10
2018-04-10T06:22:59.981Z,27.00
2018-04-10T06:23:38.964Z,26.30
2018-04-10T06:24:38.972Z,26.50
2018-04-10T06:25:38.972Z,27.40
2018-04-10T06:26:39.039Z,26.70
2018-04-10T06:27:38.973Z,27.00
2018-04-10T06:28:59.973Z,26.80
2018-04-10T06:29:38.965Z,26.90
2018-04-10T06:30:38.972Z,25.80
2018-04-10T06:31:38.968Z,26.70
2018-04-10T06:32:38.968Z,25.60
2018-04-10T06:33:38.973Z,26.80
2018-04-10T06:34:59.990Z,26.90
2018-04-10T06:35:38.972Z,26.80
2018-04-10T06:36:38.973Z,26.50
2018-04-10T06:37:38.972Z,26.50
2018-04-10T06:38:38.968Z,25.80
2018-04-10T06:39:38.969Z,26.80
2018-04-10T06:40:59.980Z,25.60
2018-04-10T06:41:38.983Z,26.90
2018-04-10T06:42:38.983Z,26.00
2018-04-10T06:43:38.983Z,26.30
2018-04-10T06:44:38.976Z,25.90
2018-04-10T06:45:38.984Z,24.40
2018-04-10T06:46:59.988Z,26.90
2018-04-10T06:47:39.064Z,26.10
2018-04-10T06:48:38.994Z,25.10
2018-04-10T06:49:38.980Z,25.30
2018-04-10T06:50:38.985Z,25.30
2018-04-10T06:51:38.989Z,26.20
2018-04-10T06:53:00.007Z,25.20
2018-04-10T06:53:39.006Z,25.20
2018-04-10T06:54:38.993Z,26.30
2018-04-10T06:55:38.994Z,26.10
2018-04-10T06:56:39.003Z,24.90
2018-04-10T06:57:38.999Z,25.20
2018-04-10T06:59:00.015Z,25.90
2018-04-10T06:59:39.006Z,25.30
2018-04-10T07:00:39.011Z,26.10
2018-04-10T07:01:39.018Z,25.30
2018-04-10T07:02:39.015Z,24.90
2018-04-10T07:03:39.009Z,25.00
2018-04-10T07:05:00.034Z,25.50
2018-04-10T07:05:39.020Z,24.50
2018-04-10T07:06:39.020Z,24.80
2018-04-10T07:07:39.027Z,25.30
2018-04-10T07:08:39.024Z,24.90
2018-04-10T07:09:39.029Z,24.90
2018-04-10T07:11:00.046Z,25.30
2018-04-10T07:11:39.031Z,25.60
2018-04-10T07:12:39.030Z,26.00
2018-04-10T07:13:39.036Z,25.30
2018-04-10T07:14:39.044Z,24.70
2018-04-10T07:15:39.048Z,24.60
2018-04-10T07:17:00.048Z,25.20
2018-04-10T07:17:39.045Z,24.70
2018-04-10T07:18:39.046Z,25.00
2018-04-10T07:19:39.041Z,25.90
2018-04-10T07:20:39.049Z,25.30
2018-04-10T07:21:39.055Z,24.20
2018-04-10T07:23:00.066Z,24.80
2018-04-10T07:23:39.060Z,25.00
2018-04-10T07:24:39.071Z,24.90
2018-04-10T07:25:39.059Z,25.00
2018-04-10T07:26:39.069Z,24.70
2018-04-10T07:27:39.070Z,24.20
2018-04-10T07:29:00.091Z,24.20
2018-04-10T07:29:39.075Z,23.90
2018-04-10T07:30:39.082Z,23.90
2018-04-10T07:31:39.093Z,24.20
2018-04-10T07:32:39.093Z,23.60
2018-04-10T07:33:39.089Z,23.60
2018-04-10T07:35:00.112Z,24.20
2018-04-10T07:35:39.112Z,24.20
2018-04-10T07:36:39.140Z,25.20
2018-04-10T07:37:39.101Z,24.30
2018-04-10T07:38:39.100Z,24.50
2018-04-10T07:39:39.136Z,23.80
2018-04-10T07:41:00.127Z,24.80
2018-04-10T07:41:39.123Z,24.10
2018-04-10T07:42:39.118Z,23.10
2018-04-10T07:43:39.141Z,23.10
2018-04-10T07:44:39.132Z,23.20
2018-04-10T07:45:39.129Z,23.40
2018-04-10T07:47:00.140Z,23.20
2018-04-10T07:47:39.142Z,23.40
2018-04-10T07:48:39.141Z,23.50
2018-04-10T07:49:39.156Z,25.10
2018-04-10T07:50:39.150Z,24.70
2018-04-10T07:51:39.150Z,24.00
2018-04-10T07:53:00.166Z,25.00
2018-04-10T07:53:39.159Z,24.20
2018-04-10T07:54:39.159Z,24.70
2018-04-10T07:55:39.167Z,24.80
2018-04-10T07:56:39.162Z,24.50
2018-04-10T07:57:39.166Z,24.60
2018-04-10T07:59:00.176Z,24.90
2018-04-10T07:59:39.180Z,24.60
2018-04-10T08:00:39.184Z,24.70
2018-04-10T08:01:39.174Z,24.50
2018-04-10T08:02:39.207Z,24.20
2018-04-10T08:03:39.184Z,25.10
2018-04-10T08:05:00.195Z,23.90
2018-04-10T08:05:39.180Z,24.80
2018-04-10T08:06:39.185Z,24.30
2018-04-10T08:07:39.192Z,24.00
2018-04-10T08:08:39.186Z,25.00
2018-04-10T08:09:39.184Z,24.20
2018-04-10T08:11:00.205Z,23.90
2018-04-10T08:11:39.192Z,24.40
2018-04-10T08:12:39.202Z,23.90
2018-04-10T08:13:39.206Z,24.70
2018-04-10T08:14:39.206Z,24.10
2018-04-10T08:15:39.207Z,24.50
2018-04-10T08:17:00.214Z,23.80
2018-04-10T08:17:39.209Z,24.40
2018-04-10T08:18:39.207Z,23.90
2018-04-10T08:19:39.212Z,23.40
2018-04-10T08:20:39.210Z,23.50
2018-04-10T08:21:39.217Z,24.30
2018-04-10T08:23:00.222Z,24.40
2018-04-10T08:23:39.213Z,24.00
2018-04-10T08:24:39.217Z,24.80
2018-04-10T08:25:39.224Z,23.90
2018-04-10T08:26:39.219Z,24.10
2018-04-10T08:27:39.232Z,23.90
2018-04-10T08:29:00.229Z,24.10
2018-04-10T08:29:39.229Z,23.80
2018-04-10T08:30:39.227Z,23.30
2018-04-10T08:31:39.233Z,23.90
2018-04-10T08:32:39.230Z,23.90
2018-04-10T08:33:39.228Z,23.10
2018-04-10T08:35:00.377Z,23.40
2018-04-10T08:35:39.238Z,23.60
2018-04-10T08:36:39.244Z,23.80
2018-04-10T08:37:39.227Z,24.30
2018-04-10T08:38:39.239Z,23.90
2018-04-10T08:39:39.235Z,23.50
2018-04-10T08:41:00.243Z,23.40
2018-04-10T08:41:39.236Z,24.40
2018-04-10T08:42:39.238Z,23.00
2018-04-10T08:43:39.243Z,22.90
2018-04-10T08:44:39.244Z,23.30
2018-04-10T08:45:39.282Z,23.20
2018-04-10T08:47:00.255Z,23.00
2018-04-10T08:47:39.255Z,23.90
2018-04-10T08:48:39.253Z,23.00
2018-04-10T08:49:39.245Z,23.50
2018-04-10T08:50:39.245Z,23.40
2018-04-10T08:51:39.264Z,22.70
2018-04-10T08:53:00.295Z,22.00
2018-04-10T08:53:39.255Z,23.20
2018-04-10T08:54:39.265Z,23.40
2018-04-10T08:55:39.258Z,22.70
2018-04-10T08:56:39.254Z,23.30
2018-04-10T08:57:39.256Z,23.20
2018-04-10T08:59:00.278Z,23.00
2018-04-10T08:59:39.266Z,22.70
2018-04-10T09:00:39.260Z,24.10
2018-04-10T09:01:39.267Z,23.60
2018-04-10T09:02:39.274Z,22.60
2018-04-10T09:03:39.270Z,23.00
2018-04-10T09:05:00.277Z,23.10
2018-04-10T09:05:39.274Z,22.90
2018-04-10T09:06:39.271Z,22.20
2018-04-10T09:07:39.287Z,21.70
2018-04-10T09:08:39.287Z,22.30
2018-04-10T09:09:39.285Z,22.80
2018-04-10T09:11:00.299Z,22.70
2018-04-10T09:11:39.285Z,22.50
2018-04-10T09:12:39.299Z,22.80
2018-04-10T09:13:39.288Z,22.10
2018-04-10T09:14:39.291Z,21.60
2018-04-10T09:15:39.289Z,21.80
2018-04-10T09:17:00.299Z,21.70
2018-04-10T09:17:39.289Z,22.70
2018-04-10T09:18:39.297Z,22.30
2018-04-10T09:19:39.301Z,21.80
2018-04-10T09:20:39.301Z,22.50
2018-04-10T09:21:39.314Z,22.10
2018-04-10T09:23:00.317Z,21.10
2018-04-10T09:23:39.308Z,22.00
2018-04-10T09:24:39.304Z,21.60
2018-04-10T09:25:39.312Z,22.00
2018-04-10T09:26:39.311Z,21.60
2018-04-10T09:27:39.320Z,22.60
2018-04-10T09:29:00.328Z,21.00
2018-04-10T09:29:39.325Z,22.00
2018-04-10T09:30:39.321Z,21.70
2018-04-10T09:31:39.349Z,21.40
2018-04-10T09:32:39.337Z,20.50
2018-04-10T09:33:39.325Z,20.60
2018-04-10T09:35:00.331Z,20.60
2018-04-10T09:35:39.332Z,20.20
2018-04-10T09:36:39.337Z,21.20
2018-04-10T09:37:39.337Z,21.10
2018-04-10T09:38:39.338Z,20.20
2018-04-10T09:39:39.338Z,19.90
2018-04-10T09:41:00.354Z,20.30
2018-04-10T09:41:39.345Z,19.30
2018-04-10T09:42:39.349Z,20.40
2018-04-10T09:43:39.397Z,19.60
2018-04-10T09:44:39.350Z,19.60
2018-04-10T09:45:39.355Z,19.00
2018-04-10T09:47:00.370Z,18.40
2018-04-10T09:47:39.357Z,19.30
2018-04-10T09:48:39.356Z,20.40
2018-04-10T09:49:39.364Z,19.80
2018-04-10T09:50:39.372Z,21.50
2018-04-10T09:51:39.380Z,18.00
2018-04-10T09:53:00.378Z,18.80
2018-04-10T09:53:39.373Z,18.10
2018-04-10T09:54:39.376Z,18.80
2018-04-10T09:55:39.388Z,18.70
2018-04-10T09:56:39.383Z,18.60
2018-04-10T09:57:39.387Z,18.90
2018-04-10T09:59:00.392Z,18.40
2018-04-10T09:59:39.386Z,18.60
2018-04-10T10:00:39.389Z,18.50
2018-04-10T10:01:39.397Z,19.30
2018-04-10T10:02:39.397Z,19.70
2018-04-10T10:03:39.394Z,18.20
2018-04-10T10:05:00.421Z,18.60
2018-04-10T10:05:39.408Z,18.60
2018-04-10T10:06:39.407Z,18.10
2018-04-10T10:07:39.406Z,18.50
2018-04-10T10:08:39.425Z,17.70
2018-04-10T10:09:39.422Z,18.70
2018-04-10T10:11:00.430Z,18.90
2018-04-10T10:11:39.422Z,17.70
2018-04-10T10:12:39.427Z,17.90
2018-04-10T10:13:39.429Z,18.00
2018-04-10T10:14:39.434Z,18.00
2018-04-10T10:15:39.441Z,18.40
2018-04-10T10:17:00.446Z,17.50
2018-04-10T10:17:39.450Z,17.20
2018-04-10T10:18:39.437Z,17.60
2018-04-10T10:19:39.441Z,18.40
2018-04-10T10:20:39.448Z,16.90
2018-04-10T10:21:39.454Z,16.80
2018-04-10T10:23:00.477Z,16.30
2018-04-10T10:23:39.457Z,16.10
2018-04-10T10:24:39.460Z,16.40
2018-04-10T10:25:39.464Z,17.70
2018-04-10T10:26:39.474Z,17.60
2018-04-10T10:27:39.474Z,16.50
2018-04-10T10:29:00.480Z,17.30
2018-04-10T10:29:39.482Z,19.10
2018-04-10T10:30:39.479Z,17.10
2018-04-10T10:31:39.478Z,16.10
2018-04-10T10:32:39.483Z,17.60
2018-04-10T10:33:39.488Z,15.70
2018-04-10T10:35:00.503Z,15.50
2018-04-10T10:35:39.486Z,16.10
2018-04-10T10:36:39.490Z,14.30
2018-04-10T10:37:39.503Z,15.80
2018-04-10T10:38:39.496Z,14.00
2018-04-10T10:39:39.509Z,14.90
2018-04-10T10:41:00.511Z,14.40
2018-04-10T10:41:39.540Z,15.80
2018-04-10T10:42:39.518Z,15.20
2018-04-10T10:43:39.531Z,14.70
2018-04-10T10:44:39.528Z,15.60
2018-04-10T10:45:39.522Z,14.50
2018-04-10T10:47:00.581Z,14.90
2018-04-10T10:47:39.522Z,15.50
2018-04-10T10:48:39.532Z,16.20
2018-04-10T10:49:39.537Z,15.70
2018-04-10T10:50:39.543Z,16.70
2018-04-10T10:51:39.540Z,15.50
2018-04-10T10:53:00.559Z,16.00
2018-04-10T10:53:39.551Z,14.60
2018-04-10T10:54:39.559Z,16.00
2018-04-10T10:55:39.566Z,15.60
2018-04-10T10:56:39.552Z,14.90
2018-04-10T10:57:39.560Z,14.70
2018-04-10T10:59:00.576Z,14.60
2018-04-10T10:59:39.572Z,16.20
2018-04-10T11:00:39.572Z,16.30
2018-04-10T11:01:39.576Z,16.00
2018-04-10T11:02:39.579Z,17.10
2018-04-10T11:03:39.588Z,13.70
2018-04-10T11:05:00.596Z,14.70
2018-04-10T11:05:39.590Z,13.70
2018-04-10T11:06:39.594Z,14.60
2018-04-10T11:07:39.601Z,15.90
2018-04-10T11:08:39.603Z,13.90
2018-04-10T11:09:39.649Z,15.40
2018-04-10T11:11:00.639Z,14.20
2018-04-10T11:11:39.622Z,14.70
2018-04-10T11:12:39.625Z,14.80
2018-04-10T11:13:39.622Z,14.80
2018-04-10T11:14:39.636Z,16.30
2018-04-10T11:15:39.637Z,13.90
2018-04-10T11:17:00.640Z,14.30
2018-04-10T11:17:39.629Z,13.60
2018-04-10T11:18:39.641Z,14.80
2018-04-10T11:19:39.644Z,14.10
2018-04-10T11:20:39.644Z,13.80
2018-04-10T11:21:39.645Z,13.50
2018-04-10T11:23:00.676Z,13.30
2018-04-10T11:23:39.656Z,15.30
2018-04-10T11:24:39.665Z,12.90
2018-04-10T11:25:39.666Z,13.70
2018-04-10T11:26:39.672Z,12.50
2018-04-10T11:27:39.677Z,13.10
2018-04-10T11:29:00.689Z,11.60
2018-04-10T11:29:39.689Z,14.70
2018-04-10T11:30:39.698Z,11.90
2018-04-10T11:31:39.686Z,13.10
2018-04-10T11:32:39.691Z,11.30
2018-04-10T11:33:39.698Z,12.00
2018-04-10T11:35:00.718Z,12.60
2018-04-10T11:35:39.704Z,13.50
2018-04-10T11:36:39.712Z,12.90
2018-04-10T11:37:39.717Z,12.40
2018-04-10T11:38:39.722Z,12.70
2018-04-10T11:39:39.726Z,12.70
2018-04-10T11:41:00.741Z,14.40
2018-04-10T11:41:39.731Z,15.30
2018-04-10T11:42:39.821Z,12.90
2018-04-10T11:43:39.816Z,12.80
2018-04-10T11:44:39.748Z,14.00
2018-04-10T11:45:39.946Z,13.10
2018-04-10T11:47:00.757Z,14.00
2018-04-10T11:47:39.758Z,13.40
2018-04-10T11:48:39.763Z,13.90
2018-04-10T11:49:39.790Z,12.10
2018-04-10T11:50:39.770Z,14.10
2018-04-10T11:51:39.777Z,13.50
2018-04-10T11:53:00.817Z,12.20
2018-04-10T11:53:39.832Z,13.40
2018-04-10T11:54:39.801Z,13.40
2018-04-10T11:55:39.802Z,11.90
2018-04-10T11:56:39.814Z,11.90
2018-04-10T11:57:39.803Z,15.50
2018-04-10T11:59:00.816Z,13.20
2018-04-10T11:59:39.805Z,13.60
2018-04-10T12:00:39.813Z,14.60
2018-04-10T12:01:39.814Z,11.50
2018-04-10T12:02:39.814Z,14.40
2018-04-10T12:03:39.832Z,13.00
2018-04-10T12:05:00.864Z,12.60
2018-04-10T12:05:39.829Z,11.00
2018-04-10T12:06:39.882Z,11.60
2018-04-10T12:07:39.836Z,11.20
2018-04-10T12:08:39.849Z,12.40
2018-04-10T12:09:39.850Z,13.10
2018-04-10T12:11:00.865Z,11.80
2018-04-10T12:11:40.071Z,13.30
2018-04-10T12:12:39.861Z,12.90
2018-04-10T12:13:40.087Z,11.40
2018-04-10T12:14:40.325Z,13.10
2018-04-10T12:15:39.879Z,12.70
2018-04-10T12:17:00.976Z,11.70
2018-04-10T12:17:39.887Z,13.80
2018-04-10T12:18:39.982Z,11.40
2018-04-10T12:19:40.110Z,10.80
2018-04-10T12:20:39.898Z,13.00
2018-04-10T12:21:39.908Z,11.80
2018-04-10T12:23:00.921Z,13.20
2018-04-10T12:23:39.920Z,13.10
2018-04-10T12:24:39.926Z,12.30
2018-04-10T12:25:40.110Z,11.70
2018-04-10T12:26:40.064Z,11.10
2018-04-10T12:27:39.953Z,14.30
2018-04-10T12:29:00.992Z,12.40
2018-04-10T12:29:39.968Z,12.30
2018-04-10T12:30:39.959Z,13.00
2018-04-10T12:31:39.952Z,12.60
2018-04-10T12:32:39.958Z,12.60
2018-04-10T12:33:39.994Z,11.20
2018-04-10T12:35:00.978Z,10.60
2018-04-10T12:35:40.056Z,10.80
2018-04-10T12:36:40.011Z,10.40
2018-04-10T12:37:39.974Z,11.40
2018-04-10T12:38:39.993Z,12.60
2018-04-10T12:39:40.004Z,11.60
2018-04-10T12:41:01.069Z,10.50
2018-04-10T12:41:40.002Z,12.10
2018-04-10T12:42:40.123Z,8.80
2018-04-10T12:43:40.063Z,13.80
2018-04-10T12:44:40.022Z,10.90
2018-04-10T12:45:40.024Z,11.80
2018-04-10T12:47:01.038Z,9.40
2018-04-10T12:47:40.021Z,12.00
2018-04-10T12:48:40.042Z,10.50
2018-04-10T12:49:40.129Z,10.40
2018-04-10T12:50:40.035Z,8.50
2018-04-10T12:51:40.206Z,9.60
2018-04-10T12:53:01.302Z,8.10